sensor_id;sensor_type;location;lat;lon;timestamp;pressure;altitude;pressure_sealevel;temperature;humidity
63901;BME280;50538;53.482;10.294;2023-05-08T00:06:07;102084.38;;;10.53;75.71
63901;BME280;50538;53.482;10.294;2023-05-08T00:16:08;102092.13;;;10.36;75.33
63901;BME280;50538;53.482;10.294;2023-05-08T00:26:31;102086.50;;;10.29;74.53
63901;BME280;50538;53.482;10.294;2023-05-08T00:36:33;102073.16;;;10.19;74.78
63901;BME280;50538;53.482;10.294;2023-05-08T00:46:34;102083.53;;;10.02;74.98
63901;BME280;50538;53.482;10.294;2023-05-08T00:56:40;102084.13;;;9.84;74.78
63901;BME280;50538;53.482;10.294;2023-05-08T01:06:40;102070.44;;;9.68;75.31
63901;BME280;50538;53.482;10.294;2023-05-08T01:48:08;102087.50;;;9.11;78.06
63901;BME280;50538;53.482;10.294;2023-05-08T01:58:27;102093.88;;;8.97;78.17
63901;BME280;50538;53.482;10.294;2023-05-08T02:08:32;102085.06;;;8.86;78.26
63901;BME280;50538;53.482;10.294;2023-05-08T02:18:50;102091.25;;;8.75;78.58
63901;BME280;50538;53.482;10.294;2023-05-08T02:28:55;102091.97;;;8.66;78.28
63901;BME280;50538;53.482;10.294;2023-05-08T02:38:57;102088.22;;;8.57;78.92
63901;BME280;50538;53.482;10.294;2023-05-08T02:49:03;102083.66;;;8.48;79.92
63901;BME280;50538;53.482;10.294;2023-05-08T02:59:19;102083.50;;;8.39;80.77
63901;BME280;50538;53.482;10.294;2023-05-08T03:09:35;102080.00;;;8.27;80.47
63901;BME280;50538;53.482;10.294;2023-05-08T03:19:48;102071.22;;;8.15;81.04
63901;BME280;50538;53.482;10.294;2023-05-08T03:30:12;102066.63;;;8.06;80.87
63901;BME280;50538;53.482;10.294;2023-05-08T03:40:13;102065.53;;;7.97;81.00
63901;BME280;50538;53.482;10.294;2023-05-08T03:50:16;102070.31;;;7.92;81.43
63901;BME280;50538;53.482;10.294;2023-05-08T04:11:02;102065.63;;;7.85;81.78
63901;BME280;50538;53.482;10.294;2023-05-08T04:21:09;102077.03;;;7.85;81.69
63901;BME280;50538;53.482;10.294;2023-05-08T04:31:36;102082.59;;;7.93;81.28
63901;BME280;50538;53.482;10.294;2023-05-08T04:41:39;102080.31;;;8.00;81.53
63901;BME280;50538;53.482;10.294;2023-05-08T04:51:41;102084.19;;;8.07;81.90
63901;BME280;50538;53.482;10.294;2023-05-08T05:01:42;102085.19;;;8.17;81.82
63901;BME280;50538;53.482;10.294;2023-05-08T05:11:42;102086.75;;;8.31;81.65
63901;BME280;50538;53.482;10.294;2023-05-08T05:21:43;102080.88;;;8.50;81.19
63901;BME280;50538;53.482;10.294;2023-05-08T05:31:43;102089.06;;;8.80;79.87
63901;BME280;50538;53.482;10.294;2023-05-08T05:41:43;102088.94;;;9.15;79.22
63901;BME280;50538;53.482;10.294;2023-05-08T05:51:44;102090.72;;;9.58;77.08
63901;BME280;50538;53.482;10.294;2023-05-08T06:01:45;102099.69;;;9.98;75.22
63901;BME280;50538;53.482;10.294;2023-05-08T06:11:46;102097.06;;;10.40;73.97
63901;BME280;50538;53.482;10.294;2023-05-08T06:21:46;102095.97;;;10.83;72.39
63901;BME280;50538;53.482;10.294;2023-05-08T06:31:47;102092.78;;;11.29;70.14
63901;BME280;50538;53.482;10.294;2023-05-08T06:41:47;102085.97;;;11.65;68.76
63901;BME280;50538;53.482;10.294;2023-05-08T06:51:48;102087.75;;;12.13;68.71
63901;BME280;50538;53.482;10.294;2023-05-08T07:01:50;102083.28;;;12.60;66.66
63901;BME280;50538;53.482;10.294;2023-05-08T07:11:50;102081.06;;;13.10;65.92
63901;BME280;50538;53.482;10.294;2023-05-08T07:21:59;102083.84;;;13.54;63.63
63901;BME280;50538;53.482;10.294;2023-05-08T07:32:06;102081.91;;;13.91;63.42
63901;BME280;50538;53.482;10.294;2023-05-08T07:42:10;102069.03;;;14.39;61.32
63901;BME280;50538;53.482;10.294;2023-05-08T07:52:12;102061.03;;;14.81;60.65
63901;BME280;50538;53.482;10.294;2023-05-08T08:02:13;102061.47;;;15.10;60.44
63901;BME280;50538;53.482;10.294;2023-05-08T08:12:18;102052.22;;;15.55;58.61
63901;BME280;50538;53.482;10.294;2023-05-08T08:22:20;102053.53;;;15.92;58.36
63901;BME280;50538;53.482;10.294;2023-05-08T08:32:21;102059.03;;;16.31;56.19
63901;BME280;50538;53.482;10.294;2023-05-08T08:42:21;102056.75;;;16.67;57.91
63901;BME280;50538;53.482;10.294;2023-05-08T09:02:48;102043.53;;;17.73;53.96
63901;BME280;50538;53.482;10.294;2023-05-08T09:13:11;102029.50;;;18.53;53.30
63901;BME280;50538;53.482;10.294;2023-05-08T09:23:13;102021.16;;;18.83;52.68
63901;BME280;50538;53.482;10.294;2023-05-08T09:33:30;102020.91;;;19.14;49.52
63901;BME280;50538;53.482;10.294;2023-05-08T09:44:05;102019.53;;;19.61;49.45
63901;BME280;50538;53.482;10.294;2023-05-08T09:54:24;102018.50;;;19.90;46.97
63901;BME280;50538;53.482;10.294;2023-05-08T10:05:01;102001.59;;;20.31;45.82
63901;BME280;50538;53.482;10.294;2023-05-08T10:15:19;102005.78;;;20.94;45.58
63901;BME280;50538;53.482;10.294;2023-05-08T10:25:49;102005.47;;;21.24;45.04
63901;BME280;50538;53.482;10.294;2023-05-08T10:36:22;101997.56;;;21.09;44.37
63901;BME280;50538;53.482;10.294;2023-05-08T10:56:48;101984.19;;;20.05;45.00
63901;BME280;50538;53.482;10.294;2023-05-08T11:06:49;101964.63;;;19.97;45.58
63901;BME280;50538;53.482;10.294;2023-05-08T11:17:14;101958.34;;;20.65;41.97
63901;BME280;50538;53.482;10.294;2023-05-08T11:38:12;101946.81;;;22.10;40.20
63901;BME280;50538;53.482;10.294;2023-05-08T11:48:15;101942.94;;;22.44;40.23
63901;BME280;50538;53.482;10.294;2023-05-08T11:58:16;101937.81;;;22.74;37.55
63901;BME280;50538;53.482;10.294;2023-05-08T12:08:19;101937.75;;;23.19;36.39
63901;BME280;50538;53.482;10.294;2023-05-08T12:18:20;101931.66;;;23.48;34.54
63901;BME280;50538;53.482;10.294;2023-05-08T12:28:21;101919.63;;;23.19;32.27
63901;BME280;50538;53.482;10.294;2023-05-08T12:38:26;101923.25;;;23.06;31.40
63901;BME280;50538;53.482;10.294;2023-05-08T12:48:27;101906.28;;;23.18;33.28
63901;BME280;50538;53.482;10.294;2023-05-08T12:58:30;101917.69;;;23.51;32.26
63901;BME280;50538;53.482;10.294;2023-05-08T13:08:37;101913.56;;;23.67;32.43
63901;BME280;50538;53.482;10.294;2023-05-08T13:18:40;101899.63;;;23.82;34.15
63901;BME280;50538;53.482;10.294;2023-05-08T13:28:48;101897.06;;;23.87;34.81
63901;BME280;50538;53.482;10.294;2023-05-08T13:38:49;101888.41;;;23.96;34.01
63901;BME280;50538;53.482;10.294;2023-05-08T13:48:50;101870.25;;;23.97;31.62
63901;BME280;50538;53.482;10.294;2023-05-08T13:58:51;101871.53;;;23.94;34.06
63901;BME280;50538;53.482;10.294;2023-05-08T14:08:51;101867.84;;;23.89;33.09
63901;BME280;50538;53.482;10.294;2023-05-08T14:18:52;101858.13;;;23.99;29.92
63901;BME280;50538;53.482;10.294;2023-05-08T14:28:52;101840.16;;;24.17;29.34
63901;BME280;50538;53.482;10.294;2023-05-08T14:38:53;101821.97;;;24.35;31.44
63901;BME280;50538;53.482;10.294;2023-05-08T14:48:53;101826.31;;;24.66;31.24
63901;BME280;50538;53.482;10.294;2023-05-08T14:58:56;101803.22;;;25.22;28.28
63901;BME280;50538;53.482;10.294;2023-05-08T15:08:57;101793.00;;;25.64;31.11
63901;BME280;50538;53.482;10.294;2023-05-08T15:18:57;101788.09;;;26.18;29.08
63901;BME280;50538;53.482;10.294;2023-05-08T15:28:58;101755.88;;;26.27;28.31
63901;BME280;50538;53.482;10.294;2023-05-08T15:38:58;101752.47;;;26.20;25.87
63901;BME280;50538;53.482;10.294;2023-05-08T15:48:59;101767.81;;;26.71;30.46
63901;BME280;50538;53.482;10.294;2023-05-08T15:58:59;101774.41;;;27.47;25.34
63901;BME280;50538;53.482;10.294;2023-05-08T16:08:59;101763.16;;;27.87;24.89
63901;BME280;50538;53.482;10.294;2023-05-08T16:19:00;101749.03;;;28.81;24.98
63901;BME280;50538;53.482;10.294;2023-05-08T16:29:04;101744.97;;;29.31;25.43
63901;BME280;50538;53.482;10.294;2023-05-08T16:39:04;101733.16;;;29.88;23.95
63901;BME280;50538;53.482;10.294;2023-05-08T16:49:04;101729.38;;;30.75;22.00
63901;BME280;50538;53.482;10.294;2023-05-08T16:59:05;101717.78;;;31.19;24.25
63901;BME280;50538;53.482;10.294;2023-05-08T17:09:05;101711.28;;;32.08;22.08
63901;BME280;50538;53.482;10.294;2023-05-08T17:19:06;101716.59;;;32.92;22.86
63901;BME280;50538;53.482;10.294;2023-05-08T17:29:07;101706.06;;;33.46;20.41
63901;BME280;50538;53.482;10.294;2023-05-08T17:39:07;101707.91;;;33.70;21.32
63901;BME280;50538;53.482;10.294;2023-05-08T17:49:08;101715.41;;;33.03;23.71
63901;BME280;50538;53.482;10.294;2023-05-08T17:59:08;101715.50;;;31.36;24.67
63901;BME280;50538;53.482;10.294;2023-05-08T18:09:09;101720.97;;;28.27;26.85
63901;BME280;50538;53.482;10.294;2023-05-08T18:19:09;101740.53;;;25.92;31.17
63901;BME280;50538;53.482;10.294;2023-05-08T18:29:10;101764.25;;;24.10;35.14
63901;BME280;50538;53.482;10.294;2023-05-08T18:39:11;101767.00;;;22.75;37.47
63901;BME280;50538;53.482;10.294;2023-05-08T18:49:11;101769.28;;;21.64;39.60
63901;BME280;50538;53.482;10.294;2023-05-08T18:59:12;101772.75;;;20.67;42.35
63901;BME280;50538;53.482;10.294;2023-05-08T19:09:12;101781.69;;;19.87;41.18
63901;BME280;50538;53.482;10.294;2023-05-08T19:19:22;101786.03;;;19.12;41.88
63901;BME280;50538;53.482;10.294;2023-05-08T19:29:27;101789.84;;;18.47;45.27
63901;BME280;50538;53.482;10.294;2023-05-08T19:39:48;101791.19;;;17.86;46.54
63901;BME280;50538;53.482;10.294;2023-05-08T19:49:50;101805.03;;;17.39;46.44
63901;BME280;50538;53.482;10.294;2023-05-08T20:00:01;101787.63;;;16.97;45.32
63901;BME280;50538;53.482;10.294;2023-05-08T20:10:05;101791.31;;;16.59;46.62
63901;BME280;50538;53.482;10.294;2023-05-08T20:20:07;101790.22;;;16.22;47.84
63901;BME280;50538;53.482;10.294;2023-05-08T20:30:19;101790.38;;;15.89;47.76
63901;BME280;50538;53.482;10.294;2023-05-08T20:40:20;101776.13;;;15.58;49.15
63901;BME280;50538;53.482;10.294;2023-05-08T20:50:24;101765.00;;;15.30;47.93
63901;BME280;50538;53.482;10.294;2023-05-08T21:00:25;101766.38;;;15.02;49.51
63901;BME280;50538;53.482;10.294;2023-05-08T21:10:25;101762.72;;;14.78;50.24
63901;BME280;50538;53.482;10.294;2023-05-08T21:20:28;101768.41;;;14.59;50.10
63901;BME280;50538;53.482;10.294;2023-05-08T21:30:29;101767.59;;;14.42;50.43
63901;BME280;50538;53.482;10.294;2023-05-08T21:40:30;101756.53;;;14.21;50.00
63901;BME280;50538;53.482;10.294;2023-05-08T21:50:31;101754.97;;;14.02;50.75
63901;BME280;50538;53.482;10.294;2023-05-08T22:00:35;101755.41;;;13.81;50.49
63901;BME280;50538;53.482;10.294;2023-05-08T22:10:37;101739.50;;;13.64;50.41
63901;BME280;50538;53.482;10.294;2023-05-08T22:20:39;101730.09;;;13.51;50.95
63901;BME280;50538;53.482;10.294;2023-05-08T22:30:39;101722.22;;;13.42;49.40
63901;BME280;50538;53.482;10.294;2023-05-08T22:40:41;101713.38;;;13.33;48.78
63901;BME280;50538;53.482;10.294;2023-05-08T22:50:42;101712.69;;;13.31;48.83
63901;BME280;50538;53.482;10.294;2023-05-08T23:00:45;101706.84;;;13.27;47.95
63901;BME280;50538;53.482;10.294;2023-05-08T23:10:46;101694.19;;;13.30;47.70
63901;BME280;50538;53.482;10.294;2023-05-08T23:20:47;101675.19;;;13.33;47.28
63901;BME280;50538;53.482;10.294;2023-05-08T23:30:47;101686.84;;;13.32;47.74
63901;BME280;50538;53.482;10.294;2023-05-08T23:40:51;101682.59;;;13.13;50.44
63901;BME280;50538;53.482;10.294;2023-05-08T23:50:54;101677.59;;;12.84;50.91
